Casa Grande Municipal Airport


Codes: KCGZ/
Name: Casa Grande Municipal Airport
City: Casa Grande
Country: United States
Elevation: 1464 ft.
Website:
Wikipedia:

Photos at Casa Grande Municipal Airport


   Photos courtesy of SpottingLog. You can add your own sightings and photos by signing up for a free trial today.



No photos found.

Weather at Casa Grande Municipal Airport


Time (UTC)DescriptionTempratureWindCloud coverageVisibilityPressureHumidity
17-Jun-2024 06:00Clear Sky31°C9 mph, SW0%10000m1002hPa14%
17-Jun-2024 09:00Clear Sky30°C7 mph, SE0%10000m1002hPa18%
17-Jun-2024 12:00Clear Sky27°C7 mph, SE0%10000m1002hPa23%
17-Jun-2024 15:00Clear Sky30°C4 mph, SE0%10000m1002hPa19%
17-Jun-2024 18:00Clear Sky38°C22 mph, SW0%10000m1001hPa10%
17-Jun-2024 21:00Clear Sky40°C22 mph, SW0%10000m999hPa7%
18-Jun-2024 00:00Clear Sky39°C20 mph, SW0%10000m997hPa8%
18-Jun-2024 03:00Clear Sky31°C16 mph, SW0%10000m999hPa12%
18-Jun-2024 06:00Clear Sky27°C16 mph, S0%10000m1001hPa21%
18-Jun-2024 09:00Clear Sky24°C4 mph, SE0%10000m1002hPa27%
18-Jun-2024 12:00Clear Sky23°C7 mph, SE0%10000m1003hPa27%
18-Jun-2024 15:00Clear Sky28°C7 mph, SE0%10000m1004hPa20%
18-Jun-2024 18:00Clear Sky33°C9 mph, SW0%10000m1004hPa14%
18-Jun-2024 21:00Clear Sky37°C9 mph, SW0%10000m1002hPa11%
19-Jun-2024 00:00Clear Sky38°C11 mph, W0%10000m1000hPa10%
19-Jun-2024 03:00Clear Sky32°C9 mph, NW0%10000m1001hPa18%
19-Jun-2024 06:00Clear Sky28°C7 mph, SW0%10000m1004hPa28%
19-Jun-2024 09:00Clear Sky27°C13 mph, SW0%10000m1004hPa26%
19-Jun-2024 12:00Clear Sky23°C4 mph, SE0%10000m1006hPa32%
19-Jun-2024 15:00Clear Sky28°C4 mph, S0%10000m1007hPa22%
19-Jun-2024 18:00Clear Sky34°C4 mph, S0%10000m1006hPa14%
19-Jun-2024 21:00Clear Sky37°C7 mph, S0%10000m1003hPa11%
20-Jun-2024 00:00Clear Sky39°C2 mph, NW0%10000m1000hPa9%
20-Jun-2024 03:00Clear Sky34°C11 mph, W0%10000m1001hPa12%
20-Jun-2024 06:00Clear Sky28°C9 mph, W0%10000m1003hPa24%
20-Jun-2024 09:00Clear Sky26°C4 mph, E0%10000m1005hPa28%
20-Jun-2024 12:00Clear Sky24°C2 mph, NE0%10000m1004hPa32%
20-Jun-2024 15:00Clear Sky31°C7 mph, E0%10000m1006hPa21%
20-Jun-2024 18:00Clear Sky37°C9 mph, S0%10000m1004hPa20%
20-Jun-2024 21:00Clear Sky42°C18 mph, SE0%10000m1000hPa15%
21-Jun-2024 00:00Clear Sky43°C9 mph, W2%10000m997hPa11%
21-Jun-2024 03:00Scattered Clouds35°C13 mph, W40%10000m1000hPa9%
21-Jun-2024 06:00Few Clouds30°C7 mph, S24%10000m1003hPa12%
21-Jun-2024 09:00Clear Sky28°C4 mph, SE0%10000m1002hPa16%
21-Jun-2024 12:00Clear Sky27°C16 mph, E0%10000m1004hPa47%
21-Jun-2024 15:00Clear Sky31°C20 mph, E0%10000m1005hPa40%
21-Jun-2024 18:00Clear Sky37°C11 mph, SE0%10000m1004hPa25%
21-Jun-2024 21:00Clear Sky42°C7 mph, SE0%10000m1001hPa17%
22-Jun-2024 00:00Clear Sky43°C2 mph, W0%10000m999hPa12%
22-Jun-2024 03:00Clear Sky37°C13 mph, W0%10000m1000hPa10%